Time;durP1;ratioP1;P1;durP2;ratioP2;P2;SDS_P1;SDS_P2;PMS_P1;PMS_P2;Temp;Humidity;BMP_temperature;BMP_pressure;BME280_temperature;BME280_humidity;BME280_pressure;Samples;Min_cycle;Max_cycle;Signal;HPM_P1;HPM_P2
2022/05/30 00:00:31;;;;;;;11.95;4.97;;;20.40;59.30;;;;;;5068187;28;20029;-75
2022/05/30 00:02:56;;;;;;;15.73;4.70;;;20.40;60.80;;;;;;5064801;28;20488;-76
2022/05/30 00:05:23;;;;;;;10.80;4.55;;;20.50;61.20;;;;;;5068732;28;20035;-75
2022/05/30 00:07:50;;;;;;;12.45;5.63;;;20.50;60.10;;;;;;5066957;28;20074;-75
2022/05/30 00:10:17;;;;;;;17.45;4.65;;;20.50;59.30;;;;;;5069309;28;20504;-75
2022/05/30 00:12:43;;;;;;;9.90;4.70;;;20.50;59.80;;;;;;5050258;28;20397;-75
2022/05/30 00:15:11;;;;;;;14.13;5.22;;;20.40;60.50;;;;;;5068562;28;20016;-75
2022/05/30 00:17:37;;;;;;;12.32;4.57;;;20.40;60.40;;;;;;5067859;28;20049;-75
2022/05/30 00:20:05;;;;;;;11.65;4.85;;;20.40;60.40;;;;;;5066758;28;20032;-76
2022/05/30 00:22:30;;;;;;;11.00;4.82;;;20.40;60.20;;;;;;5068250;28;20052;-75
2022/05/30 00:24:56;;;;;;;7.85;4.50;;;20.40;60.30;;;;;;5069748;28;20075;-76
2022/05/30 00:27:22;;;;;;;10.70;5.20;;;20.40;60.80;;;;;;5067990;28;20025;-76
2022/05/30 00:29:48;;;;;;;12.13;5.90;;;20.40;60.20;;;;;;5064135;28;20025;-76
2022/05/30 00:32:13;;;;;;;10.75;5.28;;;20.40;60.60;;;;;;5067532;28;20027;-75
2022/05/30 00:34:39;;;;;;;11.85;5.28;;;20.30;60.20;;;;;;5070514;28;20090;-76
2022/05/30 00:37:06;;;;;;;11.15;4.95;;;20.40;60.30;;;;;;5069193;28;20037;-76
2022/05/30 00:39:32;;;;;;;9.27;4.97;;;20.40;60.10;;;;;;5069467;28;20020;-76
2022/05/30 00:42:17;;;;;;;10.85;5.25;;;20.30;60.20;;;;;;5062046;28;20037;-77
2022/05/30 00:44:44;;;;;;;9.93;4.82;;;20.30;60.30;;;;;;5069290;28;20032;-77
2022/05/30 00:47:10;;;;;;;12.77;5.45;;;20.30;60.50;;;;;;5061168;28;20029;-77
2022/05/30 00:49:38;;;;;;;11.38;5.28;;;20.30;60.40;;;;;;5069248;28;20047;-77
2022/05/30 00:52:07;;;;;;;8.68;4.32;;;20.40;60.50;;;;;;5044710;28;20090;-77
2022/05/30 00:54:45;;;;;;;10.40;5.17;;;20.30;60.40;;;;;;5068936;28;20463;-77
2022/05/30 00:57:22;;;;;;;14.70;5.03;;;20.40;60.40;;;;;;5070491;28;20867;-77
2022/05/30 00:59:57;;;;;;;15.05;5.68;;;20.30;60.60;;;;;;5071740;28;20058;-78
2022/05/30 01:02:27;;;;;;;15.20;5.88;;;20.30;60.50;;;;;;5063286;28;20052;-78
2022/05/30 01:07:41;;;;;;;10.82;5.50;;;20.30;60.60;;;;;;5069464;28;20401;-77
2022/05/30 01:10:11;;;;;;;11.77;5.60;;;20.30;60.30;;;;;;5050422;28;20485;-78
2022/05/30 01:12:38;;;;;;;;;;;20.40;60.30;;;;;;5073290;28;20400;-77
2022/05/30 01:15:07;;;;;;;13.38;5.60;;;20.30;60.40;;;;;;5067684;28;19935;-77
2022/05/30 01:17:39;;;;;;;16.20;5.22;;;20.30;60.60;;;;;;5070321;28;20029;-77
2022/05/30 01:20:30;;;;;;;10.90;5.22;;;20.30;61.00;;;;;;5070123;28;20377;-77
2022/05/30 01:23:01;;;;;;;12.13;4.97;;;20.40;61.00;;;;;;5065243;28;20052;-77
2022/05/30 01:26:06;;;;;;;8.70;4.68;;;20.30;60.70;;;;;;5065066;28;20099;-77
2022/05/30 01:28:44;;;;;;;11.40;5.38;;;20.30;60.70;;;;;;5054758;28;20036;-77
2022/05/30 01:31:11;;;;;;;9.67;5.13;;;20.30;60.70;;;;;;5069648;28;20139;-77
2022/05/30 01:33:38;;;;;;;13.15;5.18;;;20.30;60.50;;;;;;5055086;28;20039;-77
2022/05/30 01:36:06;;;;;;;10.77;4.82;;;20.30;60.70;;;;;;5069861;28;20029;-77
2022/05/30 01:38:32;;;;;;;10.07;4.55;;;20.30;60.30;;;;;;5069772;28;20052;-77
2022/05/30 01:41:00;;;;;;;11.52;4.93;;;20.30;60.10;;;;;;5053822;28;20987;-77
2022/05/30 01:43:26;;;;;;;9.55;4.72;;;20.30;60.10;;;;;;5072176;28;20042;-76
2022/05/30 01:46:11;;;;;;;9.77;4.78;;;20.30;60.80;;;;;;5063180;28;20036;-77
2022/05/30 01:48:43;;;;;;;9.63;4.60;;;20.30;60.60;;;;;;5063471;28;20047;-77
2022/05/30 01:51:09;;;;;;;11.50;5.15;;;20.30;61.00;;;;;;5053317;28;20017;-77
2022/05/30 01:53:36;;;;;;;11.05;4.78;;;20.30;60.80;;;;;;5069998;28;20031;-77
2022/05/30 01:56:25;;;;;;;10.63;5.13;;;20.30;60.70;;;;;;5064380;28;20029;-77
2022/05/30 01:58:54;;;;;;;13.40;4.83;;;20.30;60.50;;;;;;5040786;28;20033;-77
2022/05/30 02:01:28;;;;;;;11.52;4.72;;;20.30;61.00;;;;;;5071802;28;20032;-77
2022/05/30 02:03:57;;;;;;;8.98;4.68;;;20.30;60.60;;;;;;5071839;28;20111;-77
2022/05/30 02:06:24;;;;;;;12.48;4.88;;;20.30;60.60;;;;;;5062518;28;20055;-77
2022/05/30 02:08:50;;;;;;;10.55;5.05;;;20.30;60.50;;;;;;5045441;28;20534;-77
2022/05/30 02:11:18;;;;;;;12.00;4.82;;;20.30;60.70;;;;;;5063382;28;20139;-77
2022/05/30 02:13:48;;;;;;;11.93;5.47;;;20.30;60.60;;;;;;5054764;28;20036;-77
2022/05/30 02:19:09;;;;;;;10.43;4.78;;;20.30;60.60;;;;;;5051916;28;20618;-78
2022/05/30 02:21:36;;;;;;;9.45;4.63;;;20.30;60.60;;;;;;5064841;28;20033;-78
2022/05/30 02:24:03;;;;;;;10.82;5.43;;;20.30;60.60;;;;;;5065441;28;20056;-78
2022/05/30 02:26:29;;;;;;;10.27;4.88;;;20.30;60.70;;;;;;5049778;28;20116;-78
2022/05/30 02:28:55;;;;;;;11.15;4.38;;;20.30;60.40;;;;;;5064602;28;20028;-77
2022/05/30 02:31:23;;;;;;;9.48;4.30;;;20.30;60.80;;;;;;5053570;28;20119;-77
2022/05/30 02:36:39;;;;;;;10.05;4.85;;;20.30;60.80;;;;;;5051307;28;20070;-77
2022/05/30 02:39:17;;;;;;;9.50;4.60;;;20.30;60.50;;;;;;5047142;28;20033;-77
2022/05/30 02:42:01;;;;;;;11.52;4.68;;;20.30;60.70;;;;;;5068781;28;20063;-77
2022/05/30 02:44:30;;;;;;;12.20;5.05;;;20.30;60.40;;;;;;5054153;28;20036;-77
2022/05/30 02:46:57;;;;;;;9.75;4.63;;;20.20;60.60;;;;;;5069643;28;20032;-78
2022/05/30 02:49:25;;;;;;;9.30;4.47;;;20.30;60.90;;;;;;5034429;28;20378;-77
2022/05/30 02:51:52;;;;;;;8.73;4.68;;;20.30;60.80;;;;;;5060310;28;20400;-77
2022/05/30 02:54:19;;;;;;;9.75;4.60;;;20.20;60.70;;;;;;5068075;28;20020;-77
2022/05/30 02:57:11;;;;;;;8.75;4.80;;;20.30;60.40;;;;;;5063684;28;20029;-77
2022/05/30 02:59:40;;;;;;;9.77;4.80;;;20.20;60.70;;;;;;5067623;28;20021;-77
2022/05/30 03:02:06;;;;;;;8.88;4.72;;;20.20;60.70;;;;;;5065114;28;20107;-77
2022/05/30 03:04:33;;;;;;;10.23;4.72;;;20.20;60.50;;;;;;5052688;28;20054;-78
2022/05/30 03:07:03;;;;;;;11.80;4.60;;;20.20;60.40;;;;;;5070530;28;20437;-77
2022/05/30 03:09:30;;;;;;;10.77;4.70;;;20.20;60.60;;;;;;5069028;28;20021;-77
2022/05/30 03:12:18;;;;;;;12.63;4.75;;;20.20;60.50;;;;;;5060989;28;20492;-77
2022/05/30 03:14:43;;;;;;;8.93;4.90;;;20.20;60.70;;;;;;5065431;28;20103;-77
2022/05/30 03:17:10;;;;;;;9.00;4.60;;;20.20;60.20;;;;;;5069747;28;20447;-76
2022/05/30 03:19:39;;;;;;;10.97;4.57;;;20.20;60.80;;;;;;5049296;28;20573;-76
2022/05/30 03:22:04;;;;;;;11.68;4.05;;;20.30;60.30;;;;;;5069562;28;20032;-76
2022/05/30 03:24:40;;;;;;;9.73;4.13;;;20.20;60.50;;;;;;5070295;28;20077;-77
2022/05/30 03:27:06;;;;;;;8.55;4.43;;;20.20;59.80;;;;;;5061190;28;20029;-77
2022/05/30 03:29:33;;;;;;;9.13;4.40;;;20.30;60.20;;;;;;5050169;28;20631;-77
2022/05/30 03:31:59;;;;;;;10.82;4.68;;;20.20;59.90;;;;;;5051037;28;20651;-77
2022/05/30 03:34:25;;;;;;;8.27;4.10;;;20.30;60.20;;;;;;5063134;28;20040;-78
2022/05/30 03:36:51;;;;;;;6.78;4.03;;;20.30;60.10;;;;;;5048997;28;20029;-77
2022/05/30 03:39:38;;;;;;;7.22;3.95;;;20.30;60.10;;;;;;5050224;28;20446;-77
2022/05/30 03:42:22;;;;;;;9.40;4.68;;;20.20;59.90;;;;;;5064778;28;20020;-77
2022/05/30 03:44:58;;;;;;;8.70;4.30;;;20.20;59.70;;;;;;5068758;28;20036;-77
2022/05/30 03:47:24;;;;;;;10.95;4.30;;;20.20;59.80;;;;;;5057107;28;20070;-78
2022/05/30 03:49:59;;;;;;;8.02;4.07;;;20.20;59.50;;;;;;5070047;28;20504;-78
2022/05/30 03:52:25;;;;;;;6.80;3.85;;;20.20;59.90;;;;;;5052819;28;20035;-77
2022/05/30 03:54:52;;;;;;;8.68;4.25;;;20.20;59.80;;;;;;5068699;28;20396;-77
2022/05/30 03:57:18;;;;;;;9.57;4.50;;;20.20;60.00;;;;;;5071077;28;20039;-78
2022/05/30 03:59:44;;;;;;;9.77;4.28;;;20.20;59.70;;;;;;5066672;28;20085;-77
2022/05/30 04:02:10;;;;;;;8.52;4.32;;;20.20;59.60;;;;;;5050474;28;20129;-77
2022/05/30 04:04:36;;;;;;;6.82;4.22;;;20.20;59.60;;;;;;5060987;28;20055;-77
2022/05/30 04:07:03;;;;;;;7.47;4.28;;;20.20;59.70;;;;;;5067951;28;20028;-77
2022/05/30 04:09:32;;;;;;;;;;;20.20;59.70;;;;;;5068785;28;20028;-78
2022/05/30 04:12:20;;;;;;;9.82;4.65;;;20.20;59.70;;;;;;5063234;28;19948;-78
2022/05/30 04:15:19;;;;;;;6.22;4.10;;;20.20;59.50;;;;;;5026758;28;20038;-77
2022/05/30 04:17:45;;;;;;;6.95;4.03;;;20.20;59.80;;;;;;5061218;28;20044;-78
2022/05/30 04:20:11;;;;;;;10.00;4.80;;;20.20;59.70;;;;;;5046309;28;20037;-77
2022/05/30 04:22:38;;;;;;;7.90;4.28;;;20.20;59.70;;;;;;5035681;28;20083;-78
2022/05/30 04:25:30;;;;;;;8.15;4.32;;;20.20;60.00;;;;;;5059748;28;20531;-78
2022/05/30 04:27:56;;;;;;;7.88;4.38;;;20.20;59.80;;;;;;5069144;28;20491;-78
2022/05/30 04:30:22;;;;;;;7.03;4.20;;;20.20;60.40;;;;;;5058791;28;20635;-77
2022/05/30 04:32:51;;;;;;;7.83;4.00;;;20.20;60.20;;;;;;5073585;28;20028;-78
2022/05/30 04:35:19;;;;;;;7.53;4.07;;;20.20;59.80;;;;;;5051365;28;20378;-78
2022/05/30 04:37:49;;;;;;;8.75;4.63;;;20.20;60.60;;;;;;5066360;28;20040;-79
2022/05/30 04:40:47;;;;;;;8.95;4.13;;;20.20;60.10;;;;;;5042934;28;20596;-78
2022/05/30 04:43:35;;;;;;;8.95;4.05;;;20.20;60.00;;;;;;5070686;28;20028;-78
2022/05/30 04:46:19;;;;;;;11.43;4.70;;;20.20;59.90;;;;;;5065923;28;20082;-78
2022/05/30 04:48:49;;;;;;;8.63;4.28;;;20.20;59.90;;;;;;5072034;28;20021;-76
2022/05/30 04:51:15;;;;;;;7.90;4.43;;;20.20;59.60;;;;;;5071026;28;20036;-76
2022/05/30 04:53:41;;;;;;;7.95;3.83;;;20.20;59.60;;;;;;5064820;28;20035;-77
2022/05/30 04:56:06;;;;;;;7.07;4.35;;;20.20;59.90;;;;;;5072785;28;20017;-77
2022/05/30 04:58:53;;;;;;;8.40;4.40;;;20.20;59.90;;;;;;5058058;28;20122;-77
2022/05/30 05:01:20;;;;;;;8.32;3.63;;;20.20;59.90;;;;;;5067865;28;20024;-77
2022/05/30 05:03:46;;;;;;;7.50;3.80;;;20.20;59.70;;;;;;5073100;28;20043;-77
2022/05/30 05:06:16;;;;;;;7.45;4.20;;;20.20;59.70;;;;;;5068333;28;20384;-77
2022/05/30 05:08:51;;;;;;;9.77;4.32;;;20.20;59.60;;;;;;5054013;28;20025;-77
2022/05/30 05:11:39;;;;;;;8.43;4.05;;;20.20;59.70;;;;;;5069099;28;20085;-77
2022/05/30 05:14:25;;;;;;;7.97;4.65;;;20.20;59.50;;;;;;5049863;28;20044;-77
2022/05/30 05:17:10;;;;;;;8.82;4.40;;;20.20;59.60;;;;;;5073124;28;20089;-76
2022/05/30 05:19:38;;;;;;;9.20;4.35;;;20.10;59.90;;;;;;5055217;28;20105;-77
2022/05/30 05:22:04;;;;;;;8.13;4.20;;;20.20;60.20;;;;;;5069014;28;20021;-77
2022/05/30 05:24:31;;;;;;;8.95;4.00;;;20.20;59.80;;;;;;5066705;28;20048;-77
2022/05/30 05:27:25;;;;;;;6.75;3.65;;;20.20;60.00;;;;;;5069939;28;20480;-77
2022/05/30 05:29:54;;;;;;;6.85;3.80;;;20.20;60.60;;;;;;5072719;28;20028;-77
2022/05/30 05:32:19;;;;;;;8.73;3.88;;;20.20;60.50;;;;;;5047495;28;20492;-77
2022/05/30 05:34:46;;;;;;;7.47;3.80;;;20.20;60.50;;;;;;5072565;28;20122;-77
2022/05/30 05:37:12;;;;;;;7.50;3.92;;;20.20;60.60;;;;;;5069159;28;20058;-77
2022/05/30 05:39:49;;;;;;;9.30;3.83;;;20.20;60.70;;;;;;5055364;28;20032;-77
2022/05/30 05:42:15;;;;;;;8.68;4.25;;;20.20;60.70;;;;;;5068953;28;20028;-77
2022/05/30 05:44:41;;;;;;;7.65;4.05;;;20.20;60.60;;;;;;5067108;28;20169;-77
2022/05/30 05:47:07;;;;;;;8.70;4.07;;;20.20;60.80;;;;;;5045434;28;20040;-77
2022/05/30 05:49:33;;;;;;;6.75;3.70;;;20.10;60.50;;;;;;5028962;28;20017;-78
2022/05/30 05:51:59;;;;;;;6.22;3.95;;;20.20;60.50;;;;;;5067214;28;20104;-77
2022/05/30 05:54:26;;;;;;;6.78;3.85;;;20.20;60.70;;;;;;5072094;28;20028;-77
2022/05/30 05:56:53;;;;;;;7.07;3.70;;;20.20;60.80;;;;;;5068578;28;20033;-77
2022/05/30 05:59:27;;;;;;;7.88;4.30;;;20.20;60.90;;;;;;5067339;28;20098;-77
2022/05/30 06:01:53;;;;;;;8.88;3.88;;;20.10;60.50;;;;;;5072027;28;20309;-77
2022/05/30 06:04:21;;;;;;;7.45;4.05;;;20.20;60.90;;;;;;5070248;28;20544;-77
2022/05/30 06:07:06;;;;;;;8.48;4.10;;;20.10;60.80;;;;;;5069050;28;20044;-77
2022/05/30 06:09:51;;;;;;;6.28;3.75;;;20.10;60.80;;;;;;5070924;28;20039;-77
2022/05/30 06:12:34;;;;;;;6.97;3.65;;;20.10;60.60;;;;;;5068898;28;20036;-77
2022/05/30 06:15:00;;;;;;;10.43;4.32;;;20.10;60.70;;;;;;5061636;28;20021;-77
2022/05/30 06:17:32;;;;;;;8.05;4.20;;;20.10;60.90;;;;;;5039117;28;20396;-77
2022/05/30 06:19:59;;;;;;;8.23;4.03;;;20.10;61.00;;;;;;5068186;28;20104;-77
2022/05/30 06:22:25;;;;;;;11.68;4.05;;;20.10;61.00;;;;;;5067281;28;20439;-76
2022/05/30 06:24:51;;;;;;;8.50;3.78;;;20.10;60.70;;;;;;5051446;28;20489;-76
2022/05/30 06:27:35;;;;;;;9.40;3.95;;;20.10;60.70;;;;;;5069845;28;20036;-77
2022/05/30 06:30:16;;;;;;;8.13;3.85;;;20.10;60.80;;;;;;5069449;28;20103;-77
2022/05/30 06:32:42;;;;;;;9.02;4.75;;;20.10;60.80;;;;;;5069133;28;20050;-76
2022/05/30 06:35:10;;;;;;;8.20;4.65;;;20.10;60.60;;;;;;5068941;28;20055;-76
2022/05/30 06:37:39;;;;;;;10.57;3.83;;;20.10;60.50;;;;;;5063958;28;20443;-77
2022/05/30 06:40:06;;;;;;;11.30;3.45;;;20.10;60.50;;;;;;5069934;28;20158;-77
2022/05/30 06:42:39;;;;;;;9.18;3.90;;;20.10;60.50;;;;;;5069430;28;20448;-80
2022/05/30 06:45:23;;;;;;;6.93;3.67;;;20.20;60.30;;;;;;5072272;28;20439;-76
2022/05/30 06:48:08;;;;;;;8.45;3.67;;;20.20;60.80;;;;;;5061327;28;20020;-76
2022/05/30 06:50:56;;;;;;;9.95;3.38;;;20.10;60.40;;;;;;5068336;28;20443;-76
2022/05/30 06:53:22;;;;;;;8.20;4.05;;;20.20;60.10;;;;;;5069030;28;20028;-76
2022/05/30 06:55:50;;;;;;;8.77;4.20;;;20.20;60.60;;;;;;5070907;28;20021;-76
2022/05/30 06:58:19;;;;;;;8.40;3.80;;;20.20;60.40;;;;;;5053226;28;20020;-76
2022/05/30 07:00:47;;;;;;;9.07;3.70;;;20.20;60.20;;;;;;5065525;28;20184;-77
2022/05/30 07:03:31;;;;;;;9.32;3.80;;;20.10;60.00;;;;;;5066603;28;20509;-78
2022/05/30 07:06:22;;;;;;;8.23;3.72;;;20.20;60.00;;;;;;5068398;28;20126;-77
2022/05/30 07:09:06;;;;;;;9.27;4.05;;;20.10;60.00;;;;;;5049374;28;20025;-77
2022/05/30 07:11:38;;;;;;;7.45;3.38;;;20.10;60.30;;;;;;5070814;28;20392;-77
2022/05/30 07:14:09;;;;;;;7.07;3.58;;;20.10;60.10;;;;;;5069008;28;20116;-78
2022/05/30 07:16:36;;;;;;;9.98;3.85;;;20.20;60.20;;;;;;5058558;28;20036;-78
2022/05/30 07:19:03;;;;;;;6.72;3.85;;;20.20;60.20;;;;;;5053668;28;20020;-77
2022/05/30 07:21:32;;;;;;;8.52;4.28;;;20.10;60.10;;;;;;5055654;28;20112;-78
2022/05/30 07:24:37;;;;;;;8.05;3.78;;;20.20;60.00;;;;;;5062771;28;20029;-77
2022/05/30 07:27:31;;;;;;;14.95;3.80;;;20.20;59.50;;;;;;5047048;28;20036;-78
2022/05/30 07:30:16;;;;;;;8.82;3.95;;;20.20;60.50;;;;;;5070808;28;20028;-77
2022/05/30 07:33:00;;;;;;;10.88;4.15;;;20.20;61.10;;;;;;5062804;28;20427;-78
2022/05/30 07:35:45;;;;;;;10.20;4.03;;;20.20;61.00;;;;;;5071536;28;20032;-77
2022/05/30 07:38:26;;;;;;;8.57;3.33;;;20.20;61.10;;;;;;5070334;28;20051;-78
2022/05/30 07:41:11;;;;;;;8.40;3.88;;;20.10;61.40;;;;;;5068195;28;20082;-77
2022/05/30 07:43:44;;;;;;;9.43;3.92;;;20.10;60.70;;;;;;5056954;28;20082;-76
2022/05/30 07:46:29;;;;;;;14.85;3.75;;;20.20;60.90;;;;;;5053315;28;20028;-77
2022/05/30 07:49:03;;;;;;;12.15;4.00;;;20.10;60.70;;;;;;5064920;28;20025;-77
2022/05/30 07:51:36;;;;;;;10.32;3.63;;;20.10;61.60;;;;;;5062215;28;20032;-77
2022/05/30 07:54:23;;;;;;;9.25;4.50;;;20.10;61.40;;;;;;5054732;28;20033;-76
2022/05/30 07:57:14;;;;;;;9.25;3.72;;;20.10;60.30;;;;;;5069711;28;20195;-77
2022/05/30 07:59:40;;;;;;;8.30;3.35;;;20.10;59.10;;;;;;5051045;28;20107;-76
2022/05/30 08:02:07;;;;;;;10.38;3.35;;;20.10;59.20;;;;;;5048515;28;20128;-76
2022/05/30 08:04:36;;;;;;;10.60;3.95;;;20.10;59.60;;;;;;5069801;28;20024;-77
2022/05/30 08:07:43;;;;;;;11.32;4.13;;;20.10;59.80;;;;;;5008170;28;20479;-77
2022/05/30 08:10:35;;;;;;;11.02;3.60;;;20.10;59.50;;;;;;4989871;28;20034;-76
2022/05/30 08:13:00;;;;;;;9.95;4.30;;;20.20;59.80;;;;;;5042849;28;20063;-77
2022/05/30 08:15:44;;;;;;;11.38;3.80;;;20.20;60.60;;;;;;5062803;28;20017;-76
2022/05/30 08:18:32;;;;;;;13.15;3.65;;;20.20;60.60;;;;;;5055769;28;20021;-76
2022/05/30 08:21:02;;;;;;;14.73;5.15;;;20.20;59.90;;;;;;5051441;28;20056;-76
2022/05/30 08:23:30;;;;;;;16.87;4.67;;;20.30;61.90;;;;;;5063751;28;20024;-76
2022/05/30 08:26:02;;;;;;;17.98;4.75;;;20.30;60.50;;;;;;5069671;28;20523;-74
2022/05/30 08:28:35;;;;;;;18.58;4.72;;;20.30;61.60;;;;;;5069308;28;20444;-76
2022/05/30 08:31:02;;;;;;;14.35;5.20;;;20.30;61.00;;;;;;5066875;28;20025;-76
2022/05/30 08:33:41;;;;;;;16.60;4.78;;;20.30;61.10;;;;;;5055694;28;20547;-75
2022/05/30 08:36:22;;;;;;;16.02;5.03;;;20.30;61.50;;;;;;5045837;28;20029;-76
2022/05/30 08:38:48;;;;;;;16.20;4.95;;;20.20;60.40;;;;;;5065222;28;20029;-77
2022/05/30 08:44:08;;;;;;;16.10;4.15;;;20.20;60.40;;;;;;5066049;28;20032;-77
2022/05/30 08:46:57;;;;;;;13.38;3.88;;;20.20;59.90;;;;;;5066110;28;20028;-76
2022/05/30 08:49:42;;;;;;;12.93;4.25;;;20.30;59.50;;;;;;5051165;28;20207;-76
2022/05/30 08:52:43;;;;;;;11.65;4.18;;;20.30;60.10;;;;;;5046574;28;20507;-77
2022/05/30 08:55:28;;;;;;;10.18;3.72;;;20.30;60.30;;;;;;5066103;28;20542;-77
2022/05/30 08:58:11;;;;;;;12.30;3.17;;;20.30;59.00;;;;;;5064949;28;20089;-77
2022/05/30 09:00:45;;;;;;;16.20;3.72;;;20.30;58.70;;;;;;5066098;28;20033;-76
2022/05/30 09:04:10;;;;;;;9.57;3.58;;;20.30;58.80;;;;;;5067380;28;20055;-76
2022/05/30 09:06:53;;;;;;;;;;;20.30;59.00;;;;;;5067280;28;20702;-76
2022/05/30 09:09:52;;;;;;;9.73;4.07;;;20.30;58.90;;;;;;5064162;28;19955;-76
2022/05/30 09:12:51;;;;;;;16.60;3.95;;;20.30;59.10;;;;;;5051071;28;20127;-76
2022/05/30 09:15:46;;;;;;;16.40;3.90;;;20.30;58.60;;;;;;5069934;28;20454;-76
2022/05/30 09:18:25;;;;;;;12.38;3.55;;;20.30;58.60;;;;;;5065836;28;20036;-77
2022/05/30 09:20:51;;;;;;;12.80;4.00;;;20.30;58.40;;;;;;5072531;28;20467;-77
2022/05/30 09:23:22;;;;;;;10.68;3.88;;;20.40;59.40;;;;;;5067948;28;20504;-77
2022/05/30 09:25:56;;;;;;;10.20;3.85;;;20.30;58.70;;;;;;5070028;28;20550;-76
2022/05/30 09:28:42;;;;;;;9.77;3.47;;;20.30;58.90;;;;;;5070533;28;20939;-76
2022/05/30 09:31:47;;;;;;;10.23;3.38;;;20.30;59.00;;;;;;5072049;28;20077;-76
2022/05/30 09:34:46;;;;;;;9.00;3.38;;;20.30;59.10;;;;;;5068345;28;20039;-77
2022/05/30 09:38:06;;;;;;;9.68;3.72;;;20.30;58.70;;;;;;5029026;28;20048;-76
2022/05/30 09:40:56;;;;;;;12.73;4.00;;;20.30;58.90;;;;;;5068048;28;20039;-77
2022/05/30 09:43:39;;;;;;;10.98;3.70;;;20.30;59.10;;;;;;5069216;28;20037;-76
2022/05/30 09:46:20;;;;;;;9.82;3.58;;;20.30;59.10;;;;;;5071547;28;20028;-77
2022/05/30 09:49:17;;;;;;;9.88;3.85;;;20.30;59.10;;;;;;5072046;28;20028;-76
2022/05/30 09:51:53;;;;;;;12.30;3.58;;;20.30;59.00;;;;;;5072450;28;20040;-76
2022/05/30 09:54:28;;;;;;;7.28;3.22;;;20.30;59.00;;;;;;5073477;28;20484;-77
2022/05/30 09:57:12;;;;;;;12.23;3.72;;;20.20;58.90;;;;;;5071391;28;20033;-77
2022/05/30 10:00:16;;;;;;;7.50;3.30;;;20.30;58.90;;;;;;5064497;28;20033;-77
2022/05/30 10:02:45;;;;;;;10.45;3.55;;;20.30;58.90;;;;;;5064936;28;20031;-76
2022/05/30 10:05:20;;;;;;;11.57;3.35;;;20.30;58.90;;;;;;5092340;28;20024;-77
2022/05/30 10:07:50;;;;;;;14.45;3.78;;;20.30;58.70;;;;;;5091704;28;20366;-77
2022/05/30 10:10:46;;;;;;;10.82;3.60;;;20.30;58.90;;;;;;5093354;28;20024;-76
2022/05/30 10:13:12;;;;;;;8.95;3.63;;;20.30;58.90;;;;;;5092206;28;20089;-75
2022/05/30 10:15:58;;;;;;;9.70;3.17;;;20.30;58.90;;;;;;5056967;28;20025;-76
2022/05/30 10:18:50;;;;;;;7.78;3.45;;;20.30;59.00;;;;;;5034828;28;20128;-78
2022/05/30 10:28:14;;;;;;;11.23;3.60;;;20.30;59.00;;;;;;5051695;28;20025;-76
2022/05/30 10:28:17;;;;;;;9.23;3.03;;;20.20;59.00;;;;;;5084609;28;20036;-76
2022/05/30 10:31:09;;;;;;;9.57;3.75;;;20.30;59.60;;;;;;5068870;28;20505;-76
2022/05/30 10:34:20;;;;;;;13.32;4.07;;;20.30;59.80;;;;;;5065382;28;20040;-76
2022/05/30 10:37:21;;;;;;;13.18;3.38;;;20.30;59.30;;;;;;5067537;28;20111;-76
2022/05/30 10:39:54;;;;;;;8.88;3.08;;;20.30;59.20;;;;;;5068806;28;20360;-75
2022/05/30 10:42:33;;;;;;;8.48;3.38;;;20.30;59.10;;;;;;5054878;28;20111;-76
2022/05/30 10:45:05;;;;;;;13.82;3.95;;;20.30;59.50;;;;;;5066943;28;20033;-76
2022/05/30 10:47:45;;;;;;;9.50;3.22;;;20.30;59.50;;;;;;5054493;28;20044;-75
2022/05/30 10:50:20;;;;;;;6.68;3.00;;;20.30;59.50;;;;;;5069685;28;20033;-74
2022/05/30 10:53:06;;;;;;;12.82;3.42;;;20.30;59.50;;;;;;5066698;28;20474;-74
2022/05/30 10:55:59;;;;;;;8.57;3.17;;;20.30;59.80;;;;;;5031867;28;20463;-74
2022/05/30 10:58:46;;;;;;;11.35;3.88;;;20.30;59.90;;;;;;5050431;28;20021;-75
2022/05/30 11:01:24;;;;;;;10.40;2.97;;;20.30;60.40;;;;;;5060246;28;20500;-75
2022/05/30 11:04:08;;;;;;;10.65;3.20;;;20.30;60.10;;;;;;5044392;28;20438;-76
2022/05/30 11:06:39;;;;;;;10.68;3.40;;;20.40;59.70;;;;;;5071592;28;20040;-75
2022/05/30 11:09:23;;;;;;;11.80;3.33;;;20.40;59.80;;;;;;5061464;28;20481;-73
2022/05/30 11:12:00;;;;;;;11.65;3.65;;;20.40;59.90;;;;;;5070472;28;20107;-74
2022/05/30 11:14:37;;;;;;;14.27;3.67;;;20.40;60.20;;;;;;5068106;28;20017;-75
2022/05/30 11:17:40;;;;;;;15.77;3.42;;;20.40;59.90;;;;;;5038181;28;20029;-75
2022/05/30 11:20:32;;;;;;;25.27;5.30;;;20.30;59.60;;;;;;5056789;28;20033;-75
2022/05/30 11:23:00;;;;;;;30.77;5.45;;;20.40;60.30;;;;;;5070341;28;20033;-76
2022/05/30 11:25:58;;;;;;;29.75;6.50;;;20.40;60.00;;;;;;5037766;23;20145;-72
2022/05/30 11:28:43;;;;;;;40.25;6.18;;;20.40;59.80;;;;;;4987056;28;20515;-72
2022/05/30 11:31:18;;;;;;;34.60;6.13;;;20.50;60.60;;;;;;4988686;28;20442;-72
2022/05/30 11:33:53;;;;;;;27.85;4.90;;;20.50;60.50;;;;;;4980193;28;20028;-73
2022/05/30 11:36:37;;;;;;;38.15;6.72;;;20.50;60.80;;;;;;4989937;28;20483;-70
2022/05/30 11:39:26;;;;;;;25.98;5.38;;;20.50;61.20;;;;;;4990440;28;20038;-72
2022/05/30 11:42:20;;;;;;;24.90;6.30;;;20.50;59.60;;;;;;4990896;28;20042;-71
2022/05/30 11:44:51;;;;;;;36.58;6.10;;;20.50;59.80;;;;;;4989661;28;20030;-72
2022/05/30 11:47:52;;;;;;;34.83;5.90;;;20.50;60.30;;;;;;4990503;28;20391;-72
2022/05/30 11:50:34;;;;;;;26.02;5.88;;;20.50;60.20;;;;;;4981186;28;20093;-73
2022/05/30 11:53:40;;;;;;;33.40;6.05;;;20.60;60.10;;;;;;5003047;28;20022;-72
2022/05/30 11:56:31;;;;;;;28.85;6.20;;;20.50;59.60;;;;;;4990601;28;20034;-72
2022/05/30 11:59:35;;;;;;;23.27;5.30;;;20.50;59.30;;;;;;4987695;28;20073;-71
2022/05/30 12:02:06;;;;;;;23.73;5.97;;;20.50;59.40;;;;;;4989585;28;20088;-72
2022/05/30 12:05:03;;;;;;;29.08;6.78;;;20.50;59.70;;;;;;4992290;28;20423;-71
2022/05/30 12:07:48;;;;;;;18.67;4.90;;;20.40;59.60;;;;;;4990114;28;20030;-71
2022/05/30 12:10:25;;;;;;;25.58;5.85;;;20.40;59.70;;;;;;4990525;28;20034;-71
2022/05/30 12:13:10;;;;;;;21.38;5.05;;;20.40;59.80;;;;;;4986968;28;20015;-72
2022/05/30 12:15:44;;;;;;;28.02;5.05;;;20.40;59.60;;;;;;4990321;28;20427;-72
2022/05/30 12:24:19;;;;;;;29.63;5.80;;;20.40;59.80;;;;;;4991637;28;20034;-72
2022/05/30 12:26:55;;;;;;;21.83;5.55;;;20.40;59.90;;;;;;4988777;28;20041;-72
2022/05/30 12:29:39;;;;;;;23.75;5.47;;;20.30;60.00;;;;;;5006214;28;20029;-72
2022/05/30 12:32:24;;;;;;;23.20;4.97;;;20.30;59.90;;;;;;4990363;28;20022;-72
2022/05/30 12:35:10;;;;;;;19.50;5.32;;;20.30;60.10;;;;;;4991648;28;20053;-72
2022/05/30 12:38:03;;;;;;;18.10;5.13;;;20.30;60.10;;;;;;4989532;28;20030;-72
2022/05/30 12:40:41;;;;;;;15.60;4.57;;;20.40;60.10;;;;;;4984076;28;20487;-72
2022/05/30 12:43:15;;;;;;;17.30;4.82;;;20.30;60.00;;;;;;4991611;28;20026;-72
2022/05/30 12:45:43;;;;;;;18.02;4.53;;;20.30;60.10;;;;;;4989854;28;20041;-73
2022/05/30 12:48:42;;;;;;;16.33;4.28;;;20.40;60.20;;;;;;4989852;28;20041;-73
2022/05/30 12:51:30;;;;;;;14.90;4.10;;;20.30;59.90;;;;;;4988569;28;20038;-72
2022/05/30 12:53:57;;;;;;;21.83;5.03;;;20.30;60.00;;;;;;4995022;28;20026;-72
2022/05/30 12:56:38;;;;;;;13.55;4.97;;;20.40;60.20;;;;;;4994811;28;20030;-72
2022/05/30 12:59:03;;;;;;;13.50;4.22;;;20.30;60.00;;;;;;4988262;28;20054;-73
2022/05/30 13:01:54;;;;;;;22.40;4.75;;;20.40;60.10;;;;;;4992402;28;20168;-73
2022/05/30 13:04:26;;;;;;;16.63;4.30;;;20.40;60.30;;;;;;4993909;28;20498;-73
2022/05/30 13:06:58;;;;;;;17.73;4.47;;;20.40;60.20;;;;;;4993609;28;20038;-73
2022/05/30 13:09:37;;;;;;;20.52;7.05;;;20.30;60.00;;;;;;4991562;28;20079;-79
2022/05/30 13:12:12;;;;;;;22.92;5.43;;;20.30;59.70;;;;;;4992592;28;20029;-79
2022/05/30 13:14:40;;;;;;;26.38;5.88;;;20.40;59.80;;;;;;5007476;28;20027;-79
2022/05/30 13:17:24;;;;;;;22.55;5.80;;;20.40;59.80;;;;;;4994479;28;20034;-79
2022/05/30 13:19:58;;;;;;;25.85;6.00;;;20.40;59.70;;;;;;4992705;28;20034;-78
2022/05/30 13:22:39;;;;;;;16.05;5.20;;;20.30;59.70;;;;;;4989418;28;20097;-79
2022/05/30 13:25:10;;;;;;;21.15;5.70;;;20.40;59.60;;;;;;4994607;28;20089;-78
2022/05/30 13:27:36;;;;;;;20.42;4.78;;;20.30;59.70;;;;;;4993155;28;20034;-78
2022/05/30 13:30:09;;;;;;;16.73;4.72;;;20.30;59.50;;;;;;4991246;28;20033;-79
2022/05/30 13:32:35;;;;;;;21.15;5.18;;;20.30;59.70;;;;;;4993166;28;20023;-79
2022/05/30 13:35:07;;;;;;;14.00;4.70;;;20.30;59.80;;;;;;4991594;28;20037;-78
2022/05/30 13:37:37;;;;;;;21.13;5.18;;;20.30;59.60;;;;;;4993719;28;20458;-79
2022/05/30 13:40:04;;;;;;;;;;;20.30;59.80;;;;;;4976361;28;20035;-78
2022/05/30 13:42:47;;;;;;;20.70;4.75;;;20.30;59.40;;;;;;4976609;28;20358;-79
2022/05/30 13:45:12;;;;;;;13.80;4.88;;;20.30;59.50;;;;;;4993306;28;20030;-79
2022/05/30 13:47:42;;;;;;;16.70;4.68;;;20.30;59.50;;;;;;4991861;28;20549;-79
2022/05/30 13:50:08;;;;;;;19.55;4.85;;;20.30;59.50;;;;;;4991137;28;20026;-78